createdAt,value
2022-11-15T03:35:27.962Z,15.08
2022-11-15T03:38:24.685Z,15.02
2022-11-15T03:41:16.259Z,15.04
2022-11-15T03:43:58.393Z,15.01
2022-11-15T03:46:38.755Z,14.98
2022-11-15T03:49:11.971Z,14.95
2022-11-15T03:51:38.900Z,14.93
2022-11-15T03:54:05.975Z,14.93
2022-11-15T03:56:33.057Z,14.94
2022-11-15T03:58:59.612Z,14.95
2022-11-15T04:01:26.201Z,14.97
2022-11-15T04:03:52.696Z,15.27
2022-11-15T04:06:19.361Z,15.00
2022-11-15T04:08:45.787Z,15.30
2022-11-15T04:11:12.296Z,15.01
2022-11-15T04:13:39.248Z,15.00
2022-11-15T04:16:05.892Z,14.96
2022-11-15T04:18:32.334Z,15.27
2022-11-15T04:21:17.484Z,14.98
2022-11-15T04:23:52.773Z,14.95
2022-11-15T04:26:22.003Z,14.93
2022-11-15T04:29:07.609Z,14.90
2022-11-15T04:31:34.288Z,14.88
2022-11-15T04:34:01.155Z,15.20
2022-11-15T04:36:46.012Z,14.91
2022-11-15T04:39:12.625Z,14.87
2022-11-15T04:41:39.177Z,15.17
2022-11-15T04:44:05.783Z,14.87
2022-11-15T04:46:32.275Z,15.16
2022-11-15T04:48:59.488Z,14.83
2022-11-15T04:51:26.509Z,14.78
2022-11-15T04:53:53.349Z,14.73
2022-11-15T04:56:20.430Z,14.70
2022-11-15T04:58:49.968Z,14.70
2022-11-15T05:01:16.612Z,14.65
2022-11-15T05:04:02.260Z,14.95
2022-11-15T05:06:29.066Z,14.69
2022-11-15T05:08:56.332Z,14.68
2022-11-15T05:11:23.504Z,14.73
2022-11-15T05:13:50.252Z,14.81
2022-11-15T05:16:16.789Z,14.93
2022-11-15T05:18:43.311Z,15.04
2022-11-15T05:21:15.671Z,15.20
2022-11-15T05:23:42.512Z,15.26
2022-11-15T05:26:10.654Z,15.36
2022-11-15T05:28:37.841Z,15.46
2022-11-15T05:31:12.717Z,15.59
2022-11-15T05:33:41.883Z,15.66
2022-11-15T05:36:10.886Z,15.72
2022-11-15T05:38:37.637Z,15.84
2022-11-15T05:41:06.022Z,15.97
2022-11-15T05:43:37.337Z,16.10
2022-11-15T05:46:05.917Z,16.21
2022-11-15T05:48:35.226Z,16.26
2022-11-15T05:51:03.700Z,16.29
2022-11-15T05:53:31.566Z,16.28
2022-11-15T05:55:58.743Z,16.25
2022-11-15T05:58:25.355Z,16.21
2022-11-15T06:00:51.814Z,16.52
2022-11-15T06:03:18.361Z,16.15
2022-11-15T06:05:44.929Z,16.43
2022-11-15T06:08:11.409Z,16.03
2022-11-15T06:10:38.105Z,15.93
2022-11-15T06:13:05.286Z,16.21
2022-11-15T06:15:34.872Z,15.84
2022-11-15T06:18:02.159Z,15.70
2022-11-15T06:20:30.228Z,15.61
2022-11-15T06:23:00.972Z,15.57
2022-11-15T06:25:28.544Z,15.45
2022-11-15T06:27:56.565Z,15.39
2022-11-15T06:30:24.529Z,15.34
2022-11-15T06:32:51.354Z,15.28
2022-11-15T06:35:18.496Z,15.24
2022-11-15T06:37:45.029Z,15.19
2022-11-15T06:40:12.078Z,15.17
2022-11-15T06:42:38.622Z,15.11
2022-11-15T06:45:05.625Z,15.09
2022-11-15T06:47:32.142Z,15.03
2022-11-15T06:49:58.667Z,15.02
2022-11-15T06:52:25.278Z,14.99
2022-11-15T06:54:51.761Z,15.30
2022-11-15T06:57:18.342Z,14.97
2022-11-15T06:59:44.810Z,15.27
2022-11-15T07:02:14.570Z,14.96
2022-11-15T07:04:41.050Z,14.89
2022-11-15T07:07:07.698Z,14.87
2022-11-15T07:09:34.199Z,15.19
2022-11-15T07:12:06.229Z,14.87
2022-11-15T07:14:34.194Z,14.84
2022-11-15T07:17:00.629Z,15.17
2022-11-15T07:19:27.215Z,14.86
2022-11-15T07:21:53.603Z,15.17
2022-11-15T07:24:20.077Z,14.87
2022-11-15T07:26:46.671Z,14.84
2022-11-15T07:29:13.207Z,14.83
2022-11-15T07:34:12.145Z,14.84
2022-11-15T07:36:38.589Z,15.18
2022-11-15T07:39:05.120Z,14.94
2022-11-15T07:41:31.795Z,14.98
2022-11-15T07:43:58.622Z,15.31
2022-11-15T07:46:25.104Z,15.14
2022-11-15T07:48:51.684Z,15.18
2022-11-15T07:51:18.423Z,15.24
2022-11-15T07:53:45.157Z,15.55
2022-11-15T07:56:12.603Z,15.38
2022-11-15T07:58:39.173Z,15.44
2022-11-15T08:01:10.204Z,15.75
2022-11-15T08:03:38.030Z,15.62
2022-11-15T08:06:04.873Z,15.66
2022-11-15T08:08:31.394Z,15.73
2022-11-15T08:11:01.783Z,15.83
2022-11-15T08:13:28.523Z,15.84
2022-11-15T08:16:02.407Z,15.93
2022-11-15T08:18:28.992Z,15.92
2022-11-15T08:20:59.715Z,16.21
2022-11-15T08:23:26.329Z,16.01
2022-11-15T08:25:52.717Z,16.30
2022-11-15T08:28:19.258Z,16.09
2022-11-15T08:30:46.628Z,16.38
2022-11-15T08:33:15.029Z,16.20
2022-11-15T08:35:45.215Z,16.22
2022-11-15T08:38:11.886Z,16.21
2022-11-15T08:40:38.613Z,16.54
2022-11-15T08:43:05.202Z,16.34
2022-11-15T08:45:31.973Z,16.64
2022-11-15T08:47:58.875Z,16.47
2022-11-15T08:50:25.466Z,16.51
2022-11-15T08:52:51.914Z,16.82
2022-11-15T08:55:18.479Z,16.66
2022-11-15T08:57:45.393Z,16.98
2022-11-15T09:00:13.323Z,16.85
2022-11-15T09:02:40.932Z,16.90
2022-11-15T09:05:08.426Z,16.97
2022-11-15T09:07:35.258Z,17.03
2022-11-15T09:10:01.803Z,17.10
2022-11-15T09:12:28.686Z,17.15
2022-11-15T09:14:55.781Z,17.20
2022-11-15T09:17:24.858Z,17.23
2022-11-15T09:19:51.972Z,17.29
2022-11-15T09:22:18.917Z,17.37
2022-11-15T09:24:45.706Z,17.44
2022-11-15T09:27:13.056Z,17.50
2022-11-15T09:29:39.726Z,17.58
2022-11-15T09:32:06.500Z,17.66
2022-11-15T09:34:33.072Z,17.73
2022-11-15T09:36:59.461Z,18.05
2022-11-15T09:39:26.015Z,17.89
2022-11-15T09:42:10.003Z,18.18
2022-11-15T09:44:46.088Z,18.10
2022-11-15T09:47:32.851Z,18.23
2022-11-15T09:50:02.659Z,18.20
2022-11-15T09:52:29.375Z,18.20
2022-11-15T09:54:56.474Z,18.23
2022-11-15T09:57:32.293Z,18.33
2022-11-15T10:03:12.457Z,18.43
2022-11-15T10:05:50.668Z,18.49
2022-11-15T10:08:46.476Z,18.57
2022-11-15T10:11:37.648Z,18.56
2022-11-15T10:14:13.615Z,18.61
2022-11-15T10:17:16.068Z,18.75
2022-11-15T10:19:51.788Z,18.69
2022-11-15T10:22:24.032Z,18.75
2022-11-15T10:25:04.427Z,18.85
2022-11-15T10:27:31.295Z,18.82
2022-11-15T10:29:57.801Z,18.80
2022-11-15T10:32:24.254Z,19.09
2022-11-15T10:34:51.470Z,18.76
2022-11-15T10:37:31.773Z,18.77
2022-11-15T10:40:17.294Z,18.73
2022-11-15T10:42:43.865Z,18.54
2022-11-15T10:45:27.872Z,18.84
2022-11-15T10:47:54.557Z,18.49
2022-11-15T10:50:33.089Z,18.49
2022-11-15T10:53:03.689Z,18.37
2022-11-15T10:55:32.873Z,18.30
2022-11-15T10:58:21.018Z,18.28
2022-11-15T11:00:47.701Z,18.17
2022-11-15T11:03:29.572Z,18.24
2022-11-15T11:06:06.600Z,18.18
2022-11-15T11:08:33.826Z,18.05
2022-11-15T11:11:03.630Z,18.00
2022-11-15T11:13:34.556Z,17.97
2022-11-15T11:16:15.381Z,18.00
2022-11-15T11:18:55.844Z,17.97
2022-11-15T11:21:55.376Z,18.01
2022-11-15T11:24:41.596Z,18.01
2022-11-15T11:27:10.850Z,17.92
2022-11-15T11:30:05.581Z,17.99
2022-11-15T11:32:55.463Z,17.96
2022-11-15T11:35:27.994Z,17.83
2022-11-15T11:38:05.193Z,17.84
2022-11-15T11:40:38.238Z,17.84
2022-11-15T11:43:08.461Z,17.86
2022-11-15T11:45:51.682Z,17.90
2022-11-15T11:48:27.376Z,17.89
2022-11-15T11:50:58.894Z,17.84
2022-11-15T11:53:48.457Z,17.98
2022-11-15T11:56:33.861Z,17.98
2022-11-15T11:59:27.137Z,17.93
2022-11-15T12:01:54.105Z,17.88
2022-11-15T12:04:43.891Z,18.02
2022-11-15T12:07:21.426Z,17.97
2022-11-15T12:10:04.174Z,18.02
2022-11-15T12:12:45.560Z,18.04
2022-11-15T12:15:25.697Z,18.06
2022-11-15T12:17:53.171Z,18.03
2022-11-15T12:20:29.513Z,18.11
2022-11-15T12:23:02.306Z,18.13
2022-11-15T12:25:52.949Z,18.24
2022-11-15T12:28:35.278Z,18.25
2022-11-15T12:31:12.945Z,18.26
2022-11-15T12:33:43.308Z,18.30
2022-11-15T12:36:41.248Z,18.46
2022-11-15T12:39:12.411Z,18.40
2022-11-15T12:41:41.377Z,18.42
2022-11-15T12:44:44.579Z,18.56
2022-11-15T12:47:11.059Z,18.51
2022-11-15T12:49:37.486Z,18.84
2022-11-15T12:52:06.768Z,18.58
2022-11-15T12:54:33.399Z,18.57
2022-11-15T12:57:08.914Z,18.61
2022-11-15T12:59:55.873Z,18.70
2022-11-15T13:02:26.547Z,18.62
2022-11-15T13:04:56.162Z,18.60
2022-11-15T13:07:59.296Z,18.76
2022-11-15T13:10:28.644Z,18.63
2022-11-15T13:12:57.345Z,18.58
2022-11-15T13:15:39.552Z,18.67
2022-11-15T13:18:34.097Z,18.72
2022-11-15T13:21:02.942Z,18.59
2022-11-15T13:23:29.956Z,18.58
2022-11-15T13:26:19.026Z,18.65
2022-11-15T13:28:50.460Z,18.62
2022-11-15T13:31:31.728Z,18.65
2022-11-15T13:34:02.505Z,18.64
2022-11-15T13:36:36.918Z,18.67
2022-11-15T13:39:28.394Z,18.75
2022-11-15T13:41:55.458Z,18.59
2022-11-15T13:44:24.755Z,18.58
2022-11-15T13:47:03.205Z,18.66
2022-11-15T13:49:32.446Z,18.57
2022-11-15T13:52:02.860Z,18.58
2022-11-15T13:54:39.423Z,18.64
2022-11-15T13:57:13.820Z,18.66
2022-11-15T13:59:54.062Z,18.72
2022-11-15T14:02:26.875Z,18.74
2022-11-15T14:04:59.228Z,18.83
2022-11-15T14:07:28.918Z,18.89
2022-11-15T14:09:56.296Z,18.93
2022-11-15T14:12:32.892Z,19.03
2022-11-15T14:15:02.090Z,19.04
2022-11-15T14:17:31.702Z,19.05
2022-11-15T14:19:59.050Z,19.02
2022-11-15T14:22:27.157Z,19.02
2022-11-15T14:25:08.781Z,19.14
2022-11-15T14:27:35.589Z,19.05
2022-11-15T14:30:02.283Z,19.06
2022-11-15T14:32:31.287Z,19.08
2022-11-15T14:35:03.087Z,19.11
2022-11-15T14:37:34.153Z,19.09
2022-11-15T14:40:00.809Z,19.05
2022-11-15T14:42:27.390Z,19.02
2022-11-15T14:44:54.129Z,19.33
2022-11-15T14:47:20.995Z,19.04
2022-11-15T14:49:47.952Z,18.98
2022-11-15T14:52:36.297Z,19.09
2022-11-15T14:55:12.695Z,18.94
2022-11-15T14:57:39.241Z,18.87
2022-11-15T15:00:06.211Z,19.20
2022-11-15T15:02:33.797Z,18.87
2022-11-15T15:05:02.187Z,18.79
2022-11-15T15:07:28.739Z,18.74
2022-11-15T15:10:11.302Z,19.07
2022-11-15T15:12:42.201Z,18.71
2022-11-15T15:15:20.852Z,18.72
2022-11-15T15:17:47.426Z,18.62
2022-11-15T15:20:14.038Z,18.96
2022-11-15T15:22:40.813Z,18.61
2022-11-15T15:25:22.532Z,18.67
2022-11-15T15:27:49.710Z,18.53
2022-11-15T15:30:16.297Z,18.50
2022-11-15T15:32:42.765Z,18.84
2022-11-15T15:35:13.541Z,18.56
2022-11-15T15:37:40.518Z,18.47
2022-11-15T15:40:22.325Z,18.55
2022-11-15T15:42:49.830Z,18.43
2022-11-15T15:45:17.661Z,18.41
2022-11-15T15:47:45.157Z,18.40
2022-11-15T15:50:20.982Z,18.46
2022-11-15T15:52:47.536Z,18.39
2022-11-15T15:55:13.992Z,18.75
2022-11-15T15:57:40.698Z,18.43
2022-11-15T16:00:07.858Z,18.36
2022-11-15T16:02:39.260Z,18.34
2022-11-15T16:05:07.914Z,18.29
2022-11-15T16:07:34.761Z,18.27
2022-11-15T16:10:01.576Z,18.24
2022-11-15T16:12:35.670Z,18.28
2022-11-15T16:15:03.727Z,18.17
2022-11-15T16:17:35.113Z,18.20
2022-11-15T16:20:02.339Z,18.11
2022-11-15T16:22:30.228Z,18.08
2022-11-15T16:24:57.421Z,18.05
2022-11-15T16:27:24.547Z,18.00
2022-11-15T16:29:51.095Z,17.95
2022-11-15T16:32:17.855Z,18.30
2022-11-15T16:34:48.773Z,17.93
2022-11-15T16:37:34.031Z,18.00
2022-11-15T16:40:01.241Z,17.80
2022-11-15T16:42:28.078Z,17.75
2022-11-15T16:44:54.470Z,18.09
2022-11-15T16:47:21.303Z,17.71
2022-11-15T16:49:48.067Z,17.62
2022-11-15T16:52:17.618Z,17.55
2022-11-15T16:54:47.632Z,17.51
2022-11-15T16:57:14.029Z,17.86
2022-11-15T16:59:40.592Z,17.47
2022-11-15T17:02:11.799Z,17.80
2022-11-15T17:04:38.391Z,17.41
2022-11-15T17:07:04.869Z,17.72
2022-11-15T17:09:33.044Z,17.32
2022-11-15T17:11:59.582Z,17.25
2022-11-15T17:14:25.987Z,17.57
2022-11-15T17:16:52.564Z,17.20
2022-11-15T17:19:20.412Z,17.51
2022-11-15T17:21:47.218Z,17.52
2022-11-15T17:24:13.888Z,17.13
2022-11-15T17:26:41.104Z,17.43
2022-11-15T17:29:08.198Z,17.08
2022-11-15T17:31:39.027Z,17.04
2022-11-15T17:34:06.805Z,16.94
2022-11-15T17:36:33.927Z,16.89
2022-11-15T17:39:00.602Z,16.87
2022-11-15T17:41:28.738Z,16.83
2022-11-15T17:44:00.058Z,16.85
2022-11-15T17:46:28.067Z,16.79
2022-11-15T17:48:56.253Z,16.77
2022-11-15T17:51:24.176Z,16.73
2022-11-15T17:53:51.571Z,16.71
2022-11-15T17:56:20.305Z,16.70
2022-11-15T17:58:55.016Z,16.71
2022-11-15T18:01:21.548Z,16.64
2022-11-15T18:03:48.521Z,16.98
2022-11-15T18:06:16.128Z,16.66
2022-11-15T18:08:45.162Z,16.60
2022-11-15T18:11:16.141Z,16.61
2022-11-15T18:13:51.936Z,16.57
2022-11-15T18:16:21.869Z,16.53
2022-11-15T18:18:48.992Z,16.48
2022-11-15T18:21:18.837Z,16.46
2022-11-15T18:23:47.341Z,16.42
2022-11-15T18:26:15.877Z,16.42
2022-11-15T18:28:46.902Z,16.43
2022-11-15T18:31:19.365Z,16.42
2022-11-15T18:33:46.158Z,16.34
2022-11-15T18:36:14.129Z,16.69
2022-11-15T18:38:40.761Z,16.34
2022-11-15T18:41:12.040Z,16.66
2022-11-15T18:43:39.783Z,16.31
2022-11-15T18:46:14.473Z,16.32
2022-11-15T18:48:42.590Z,16.22
2022-11-15T18:51:22.520Z,16.23
2022-11-15T18:53:52.118Z,16.19
2022-11-15T18:56:20.674Z,16.17
2022-11-15T18:58:49.605Z,16.15
2022-11-15T19:01:25.245Z,16.18
2022-11-15T19:03:53.954Z,16.11
2022-11-15T19:06:25.833Z,16.16
2022-11-15T19:08:54.804Z,16.11
2022-11-15T19:11:31.736Z,16.16
2022-11-15T19:14:03.290Z,16.09
2022-11-15T19:16:33.274Z,16.08
2022-11-15T19:19:08.548Z,16.10
2022-11-15T19:21:35.147Z,16.03
2022-11-15T19:24:01.977Z,16.37
2022-11-15T19:26:29.651Z,16.04
2022-11-15T19:28:58.811Z,16.02
2022-11-15T19:31:26.714Z,15.98
2022-11-15T19:33:53.958Z,15.94
2022-11-15T19:36:28.958Z,16.00
2022-11-15T19:38:56.331Z,15.91
2022-11-15T19:41:26.691Z,15.91
2022-11-15T19:43:53.820Z,15.87
2022-11-15T19:46:23.720Z,15.87
2022-11-15T19:48:51.557Z,15.85
2022-11-15T19:51:24.979Z,15.90
2022-11-15T19:53:57.688Z,15.89
2022-11-15T19:56:24.556Z,15.82
2022-11-15T19:58:55.822Z,15.86
2022-11-15T20:01:30.346Z,15.88
2022-11-15T20:03:59.595Z,15.81
2022-11-15T20:06:32.351Z,15.81
2022-11-15T20:08:59.921Z,15.78
2022-11-15T20:11:27.212Z,15.78
2022-11-15T20:14:02.293Z,15.83
2022-11-15T20:16:29.879Z,15.76
2022-11-15T20:18:56.448Z,15.75
2022-11-15T20:21:23.052Z,16.08
2022-11-15T20:23:51.087Z,15.77
2022-11-15T20:26:18.936Z,15.73
2022-11-15T20:28:45.675Z,15.71
2022-11-15T20:31:13.124Z,15.69
2022-11-15T20:33:40.117Z,15.68
2022-11-15T20:36:10.249Z,15.68
2022-11-15T20:38:37.499Z,15.66
2022-11-15T20:41:08.644Z,15.68
2022-11-15T20:43:35.283Z,15.65
2022-11-15T20:46:01.696Z,15.98
2022-11-15T20:48:28.394Z,15.68
2022-11-15T20:51:03.665Z,15.99
2022-11-15T20:53:31.616Z,15.66
2022-11-15T20:56:04.466Z,15.67
2022-11-15T20:58:31.292Z,15.60
2022-11-15T21:00:58.329Z,15.59
2022-11-15T21:03:24.984Z,15.57
2022-11-15T21:05:54.525Z,15.89
2022-11-15T21:08:21.217Z,15.60
2022-11-15T21:11:08.178Z,15.90
2022-11-15T21:13:36.717Z,15.59
2022-11-15T21:16:06.766Z,15.60
2022-11-15T21:18:33.563Z,15.52
2022-11-15T21:21:05.198Z,15.55
2022-11-15T21:23:31.849Z,15.48
2022-11-15T21:25:58.555Z,15.80
2022-11-15T21:28:25.265Z,15.50
2022-11-15T21:30:52.419Z,15.80
2022-11-15T21:33:18.965Z,15.51
2022-11-15T21:35:45.528Z,15.45
2022-11-15T21:38:12.034Z,15.44
2022-11-15T21:40:38.740Z,15.39
2022-11-15T21:43:05.142Z,15.72
2022-11-15T21:45:31.710Z,15.40
2022-11-15T21:47:58.235Z,15.39
2022-11-15T21:50:24.665Z,15.36
2022-11-15T21:52:51.130Z,15.36
2022-11-15T21:55:17.579Z,15.34
2022-11-15T21:57:44.022Z,15.33
2022-11-15T22:00:29.619Z,15.32
